Check out our new PWSWeather beta!
PWSweather.com
Personal Weather Stations
Station Observations
OINOFYTA
Oinofyta Greece, OinofytaGR 320 11

Oinofyta GreeceOinofytaGR 320 11

Lat: 38.3080648, Lon: 23.6391172

Elevation: 354

Station Type: ProWeatherStation 1080

https://oinofytaweather.gr/

High Low Average
Temperature 85.3°F29.6°C 73.6°F23.1°C 80.1°F26.7°C
Dew Point 63.8°F17.7°C 56.7°F13.7°C 60.2°F15.7°C
Winds 13.4 mph 21.6 kmh 2.8 mph 4.5 kmh 8.0 mph NW12.9 kmh NW
Wind Gusts 25.9 mph41.7 kmh 6.9 mph11.1 kmh 16.0 mph25.7 kmh
Humidity 66% 38% 51%
Pressure 30.07 in1018.3 mb 29.98 in1015.2 mb -
Precipitation 0.00 in0.0 mm - -
Hour Temp Dew Point Humidity Winds Wind Gusts Pressure Precip Precip Rate Daily Precip Total
12:00 AM 76.6°F24.8°C 62.2°F16.8°C 61% 3.5 mph NW5.6 kmh NW 7.6 mph12.2 kmh 30.00 in1015.9 mb 0.00 in0.0 mm 0.00 in0.0 mm 0.00 in0.0 mm
12:05 AM 76.6°F24.8°C 62.2°F16.8°C 61% 3.5 mph NW5.6 kmh NW 8.3 mph13.4 kmh 30.00 in1015.9 mb 0.00 in0.0 mm 0.00 in0.0 mm 0.00 in0.0 mm
12:10 AM 76.6°F24.8°C 62.2°F16.8°C 61% 3.7 mph NNW6.0 kmh NNW 8.3 mph13.4 kmh 30.00 in1015.9 mb 0.00 in0.0 mm 0.00 in0.0 mm 0.00 in0.0 mm
12:15 AM 76.8°F24.9°C 62.4°F16.9°C 61% 4.4 mph NW7.1 kmh NW 10.7 mph17.2 kmh 30.00 in1015.9 mb 0.00 in0.0 mm 0.00 in0.0 mm 0.00 in0.0 mm
12:20 AM 76.8°F24.9°C 62.4°F16.9°C 61% 4.8 mph NW7.7 kmh NW 10.7 mph17.2 kmh 29.99 in1015.6 mb 0.00 in0.0 mm 0.00 in0.0 mm 0.00 in0.0 mm
12:25 AM 76.8°F24.9°C 62.9°F17.2°C 62% 5.0 mph NW8.0 kmh NW 10.7 mph17.2 kmh 30.00 in1015.9 mb 0.00 in0.0 mm 0.00 in0.0 mm 0.00 in0.0 mm
12:30 AM 76.6°F24.8°C 62.7°F17.1°C 62% 4.7 mph NW7.6 kmh NW 13.0 mph20.9 kmh 30.00 in1015.9 mb 0.00 in0.0 mm 0.00 in0.0 mm 0.00 in0.0 mm
12:35 AM 76.5°F24.7°C 63.0°F17.2°C 63% 4.5 mph NW7.2 kmh NW 13.0 mph20.9 kmh 29.99 in1015.6 mb 0.00 in0.0 mm 0.00 in0.0 mm 0.00 in0.0 mm
12:40 AM 76.3°F24.6°C 62.8°F17.1°C 63% 4.7 mph NW7.6 kmh NW 12.1 mph19.5 kmh 29.99 in1015.6 mb 0.00 in0.0 mm 0.00 in0.0 mm 0.00 in0.0 mm
12:45 AM 76.1°F24.5°C 62.6°F17.0°C 63% 4.1 mph NW6.6 kmh NW 10.7 mph17.2 kmh 29.99 in1015.6 mb 0.00 in0.0 mm 0.00 in0.0 mm 0.00 in0.0 mm
12:50 AM 75.9°F24.4°C 62.9°F17.2°C 64% 3.5 mph NW5.6 kmh NW 9.2 mph14.8 kmh 29.99 in1015.6 mb 0.00 in0.0 mm 0.00 in0.0 mm 0.00 in0.0 mm
12:55 AM 75.9°F24.4°C 62.9°F17.2°C 64% 3.7 mph NW6.0 kmh NW 10.7 mph17.2 kmh 29.99 in1015.6 mb 0.00 in0.0 mm 0.00 in0.0 mm 0.00 in0.0 mm
01:00 AM 75.7°F24.3°C 62.7°F17.1°C 64% 3.7 mph NW6.0 kmh NW 10.7 mph17.2 kmh 29.99 in1015.6 mb 0.00 in0.0 mm 0.00 in0.0 mm 0.00 in0.0 mm
01:05 AM 75.7°F24.3°C 62.7°F17.1°C 64% 3.5 mph NW5.6 kmh NW 10.7 mph17.2 kmh 29.99 in1015.6 mb 0.00 in0.0 mm 0.00 in0.0 mm 0.00 in0.0 mm
01:10 AM 75.7°F24.3°C 63.2°F17.3°C 65% 3.4 mph NW5.5 kmh NW 9.2 mph14.8 kmh 29.99 in1015.6 mb 0.00 in0.0 mm 0.00 in0.0 mm 0.00 in0.0 mm
01:15 AM 75.7°F24.3°C 63.2°F17.3°C 65% 3.7 mph NW6.0 kmh NW 8.3 mph13.4 kmh 29.99 in1015.6 mb 0.00 in0.0 mm 0.00 in0.0 mm 0.00 in0.0 mm
01:20 AM 75.6°F24.2°C 63.4°F17.4°C 66% 3.0 mph NW4.8 kmh NW 7.6 mph12.2 kmh 29.99 in1015.6 mb 0.00 in0.0 mm 0.00 in0.0 mm 0.00 in0.0 mm
01:25 AM 75.7°F24.3°C 63.6°F17.6°C 66% 3.0 mph WNW4.8 kmh WNW 9.8 mph15.8 kmh 29.99 in1015.6 mb 0.00 in0.0 mm 0.00 in0.0 mm 0.00 in0.0 mm
01:30 AM 75.7°F24.3°C 63.2°F17.3°C 65% 3.2 mph WNW5.1 kmh WNW 9.8 mph15.8 kmh 29.99 in1015.6 mb 0.00 in0.0 mm 0.00 in0.0 mm 0.00 in0.0 mm
01:35 AM 75.7°F24.3°C 63.2°F17.3°C 65% 3.0 mph W4.8 kmh W 8.3 mph13.4 kmh 29.99 in1015.6 mb 0.00 in0.0 mm 0.00 in0.0 mm 0.00 in0.0 mm
01:40 AM 75.7°F24.3°C 63.6°F17.6°C 66% 3.3 mph W5.3 kmh W 8.3 mph13.4 kmh 29.98 in1015.2 mb 0.00 in0.0 mm 0.00 in0.0 mm 0.00 in0.0 mm
01:45 AM 75.7°F24.3°C 63.6°F17.6°C 66% 2.8 mph W4.5 kmh W 7.6 mph12.2 kmh 29.99 in1015.6 mb 0.00 in0.0 mm 0.00 in0.0 mm 0.00 in0.0 mm
01:50 AM 75.7°F24.3°C 63.6°F17.6°C 66% 3.1 mph NW5.0 kmh NW 7.6 mph12.2 kmh 29.99 in1015.6 mb 0.00 in0.0 mm 0.00 in0.0 mm 0.00 in0.0 mm
01:55 AM 75.9°F24.4°C 63.8°F17.7°C 66% 3.7 mph NW6.0 kmh NW 9.2 mph14.8 kmh 29.99 in1015.6 mb 0.00 in0.0 mm 0.00 in0.0 mm 0.00 in0.0 mm
02:00 AM 75.9°F24.4°C 63.8°F17.7°C 66% 3.6 mph NW5.8 kmh NW 9.2 mph14.8 kmh 29.98 in1015.2 mb 0.00 in0.0 mm 0.00 in0.0 mm 0.00 in0.0 mm
02:05 AM 75.9°F24.4°C 63.8°F17.7°C 66% 3.4 mph NW5.5 kmh NW 9.2 mph14.8 kmh 29.98 in1015.2 mb 0.00 in0.0 mm 0.00 in0.0 mm 0.00 in0.0 mm
02:10 AM 75.7°F24.3°C 63.6°F17.6°C 66% 3.3 mph NW5.3 kmh NW 7.6 mph12.2 kmh 29.98 in1015.2 mb 0.00 in0.0 mm 0.00 in0.0 mm 0.00 in0.0 mm
02:15 AM 75.7°F24.3°C 63.6°F17.6°C 66% 2.8 mph NW4.5 kmh NW 7.6 mph12.2 kmh 29.98 in1015.2 mb 0.00 in0.0 mm 0.00 in0.0 mm 0.00 in0.0 mm
02:20 AM 75.7°F24.3°C 63.6°F17.6°C 66% 3.2 mph NW5.1 kmh NW 9.8 mph15.8 kmh 29.98 in1015.2 mb 0.00 in0.0 mm 0.00 in0.0 mm 0.00 in0.0 mm
02:25 AM 75.9°F24.4°C 63.3°F17.4°C 65% 3.9 mph NW6.3 kmh NW 9.8 mph15.8 kmh 29.98 in1015.2 mb 0.00 in0.0 mm 0.00 in0.0 mm 0.00 in0.0 mm
02:30 AM 75.9°F24.4°C 63.3°F17.4°C 65% 4.8 mph NW7.7 kmh NW 13.0 mph20.9 kmh 29.98 in1015.2 mb 0.00 in0.0 mm 0.00 in0.0 mm 0.00 in0.0 mm
02:35 AM 76.3°F24.6°C 63.2°F17.3°C 64% 5.2 mph NW8.4 kmh NW 13.0 mph20.9 kmh 29.98 in1015.2 mb 0.00 in0.0 mm 0.00 in0.0 mm 0.00 in0.0 mm
02:40 AM 76.3°F24.6°C 62.8°F17.1°C 63% 4.7 mph NW7.6 kmh NW 9.8 mph15.8 kmh 29.99 in1015.6 mb 0.00 in0.0 mm 0.00 in0.0 mm 0.00 in0.0 mm
02:45 AM 76.3°F24.6°C 62.8°F17.1°C 63% 5.0 mph NW8.0 kmh NW 13.0 mph20.9 kmh 29.98 in1015.2 mb 0.00 in0.0 mm 0.00 in0.0 mm 0.00 in0.0 mm
02:50 AM 76.3°F24.6°C 62.8°F17.1°C 63% 4.7 mph NW7.6 kmh NW 13.0 mph20.9 kmh 29.99 in1015.6 mb 0.00 in0.0 mm 0.00 in0.0 mm 0.00 in0.0 mm
02:55 AM 76.1°F24.5°C 62.6°F17.0°C 63% 4.8 mph NW7.7 kmh NW 11.4 mph18.3 kmh 29.99 in1015.6 mb 0.00 in0.0 mm 0.00 in0.0 mm 0.00 in0.0 mm
03:00 AM 76.1°F24.5°C 62.6°F17.0°C 63% 5.1 mph NW8.2 kmh NW 11.4 mph18.3 kmh 29.98 in1015.2 mb 0.00 in0.0 mm 0.00 in0.0 mm 0.00 in0.0 mm
03:05 AM 76.1°F24.5°C 62.6°F17.0°C 63% 5.4 mph NW8.7 kmh NW 14.5 mph23.3 kmh 29.98 in1015.2 mb 0.00 in0.0 mm 0.00 in0.0 mm 0.00 in0.0 mm
03:10 AM 76.1°F24.5°C 62.2°F16.8°C 62% 6.4 mph NW10.3 kmh NW 14.5 mph23.3 kmh 29.99 in1015.6 mb 0.00 in0.0 mm 0.00 in0.0 mm 0.00 in0.0 mm
03:15 AM 76.1°F24.5°C 62.2°F16.8°C 62% 6.8 mph NW10.9 kmh NW 13.0 mph20.9 kmh 29.99 in1015.6 mb 0.00 in0.0 mm 0.00 in0.0 mm 0.00 in0.0 mm
03:20 AM 76.1°F24.5°C 62.2°F16.8°C 62% 6.5 mph NW10.5 kmh NW 12.1 mph19.5 kmh 29.99 in1015.6 mb 0.00 in0.0 mm 0.00 in0.0 mm 0.00 in0.0 mm
03:25 AM 75.9°F24.4°C 62.0°F16.7°C 62% 6.2 mph NW10.0 kmh NW 12.1 mph19.5 kmh 29.99 in1015.6 mb 0.00 in0.0 mm 0.00 in0.0 mm 0.00 in0.0 mm
03:30 AM 75.7°F24.3°C 61.8°F16.6°C 62% 5.3 mph NW8.5 kmh NW 11.4 mph18.3 kmh 29.99 in1015.6 mb 0.00 in0.0 mm 0.00 in0.0 mm 0.00 in0.0 mm
03:35 AM 75.6°F24.2°C 61.7°F16.5°C 62% 5.3 mph NW8.5 kmh NW 11.4 mph18.3 kmh 29.99 in1015.6 mb 0.00 in0.0 mm 0.00 in0.0 mm 0.00 in0.0 mm
03:40 AM 75.6°F24.2°C 61.7°F16.5°C 62% 5.9 mph NW9.5 kmh NW 11.4 mph18.3 kmh 29.99 in1015.6 mb 0.00 in0.0 mm 0.00 in0.0 mm 0.00 in0.0 mm
03:45 AM 75.4°F24.1°C 61.5°F16.4°C 62% 4.6 mph NW7.4 kmh NW 9.8 mph15.8 kmh 29.99 in1015.6 mb 0.00 in0.0 mm 0.00 in0.0 mm 0.00 in0.0 mm
03:50 AM 74.8°F23.8°C 61.4°F16.3°C 63% 3.2 mph NW5.1 kmh NW 8.3 mph13.4 kmh 29.99 in1015.6 mb 0.00 in0.0 mm 0.00 in0.0 mm 0.00 in0.0 mm
03:55 AM 74.8°F23.8°C 61.4°F16.3°C 63% 3.3 mph NW5.3 kmh NW 9.2 mph14.8 kmh 30.00 in1015.9 mb 0.00 in0.0 mm 0.00 in0.0 mm 0.00 in0.0 mm
04:00 AM 74.7°F23.7°C 61.3°F16.3°C 63% 3.0 mph WNW4.8 kmh WNW 9.2 mph14.8 kmh 30.00 in1015.9 mb 0.00 in0.0 mm 0.00 in0.0 mm 0.00 in0.0 mm
04:05 AM 74.5°F23.6°C 61.1°F16.2°C 63% 2.9 mph NW4.7 kmh NW 8.3 mph13.4 kmh 30.00 in1015.9 mb 0.00 in0.0 mm 0.00 in0.0 mm 0.00 in0.0 mm
04:10 AM 74.5°F23.6°C 61.5°F16.4°C 64% 3.6 mph NW5.8 kmh NW 8.3 mph13.4 kmh 30.00 in1015.9 mb 0.00 in0.0 mm 0.00 in0.0 mm 0.00 in0.0 mm
04:15 AM 74.5°F23.6°C 62.0°F16.7°C 65% 4.2 mph NW6.8 kmh NW 9.2 mph14.8 kmh 30.00 in1015.9 mb 0.00 in0.0 mm 0.00 in0.0 mm 0.00 in0.0 mm
04:20 AM 74.3°F23.5°C 61.8°F16.6°C 65% 4.4 mph NW7.1 kmh NW 9.2 mph14.8 kmh 30.00 in1015.9 mb 0.00 in0.0 mm 0.00 in0.0 mm 0.00 in0.0 mm
04:25 AM 74.1°F23.4°C 61.6°F16.4°C 65% 4.6 mph NW7.4 kmh NW 10.7 mph17.2 kmh 30.00 in1015.9 mb 0.00 in0.0 mm 0.00 in0.0 mm 0.00 in0.0 mm
04:30 AM 74.3°F23.5°C 61.4°F16.3°C 64% 5.1 mph NW8.2 kmh NW 11.4 mph18.3 kmh 30.00 in1015.9 mb 0.00 in0.0 mm 0.00 in0.0 mm 0.00 in0.0 mm
04:35 AM 74.5°F23.6°C 61.1°F16.2°C 63% 5.2 mph NW8.4 kmh NW 11.4 mph18.3 kmh 30.00 in1015.9 mb 0.00 in0.0 mm 0.00 in0.0 mm 0.00 in0.0 mm
04:40 AM 74.3°F23.5°C 60.9°F16.1°C 63% 5.3 mph NW8.5 kmh NW 11.4 mph18.3 kmh 30.00 in1015.9 mb 0.00 in0.0 mm 0.00 in0.0 mm 0.00 in0.0 mm
04:45 AM 74.3°F23.5°C 60.9°F16.1°C 63% 5.4 mph NW8.7 kmh NW 11.4 mph18.3 kmh 30.00 in1015.9 mb 0.00 in0.0 mm 0.00 in0.0 mm 0.00 in0.0 mm
04:50 AM 74.3°F23.5°C 60.9°F16.1°C 63% 5.4 mph NW8.7 kmh NW 13.0 mph20.9 kmh 30.00 in1015.9 mb 0.00 in0.0 mm 0.00 in0.0 mm 0.00 in0.0 mm
04:55 AM 74.1°F23.4°C 61.2°F16.2°C 64% 5.4 mph NW8.7 kmh NW 13.0 mph20.9 kmh 30.01 in1016.3 mb 0.00 in0.0 mm 0.00 in0.0 mm 0.00 in0.0 mm
05:00 AM 74.1°F23.4°C 61.6°F16.4°C 65% 5.6 mph NW9.0 kmh NW 13.0 mph20.9 kmh 30.01 in1016.3 mb 0.00 in0.0 mm 0.00 in0.0 mm 0.00 in0.0 mm
05:05 AM 73.9°F23.3°C 61.5°F16.4°C 65% 6.2 mph NW10.0 kmh NW 13.0 mph20.9 kmh 30.01 in1016.3 mb 0.00 in0.0 mm 0.00 in0.0 mm 0.00 in0.0 mm
05:10 AM 73.8°F23.2°C 61.7°F16.5°C 66% 7.1 mph NW11.4 kmh NW 14.5 mph23.3 kmh 30.01 in1016.3 mb 0.00 in0.0 mm 0.00 in0.0 mm 0.00 in0.0 mm
05:15 AM 73.9°F23.3°C 61.5°F16.4°C 65% 8.3 mph NW13.4 kmh NW 15.9 mph25.6 kmh 30.02 in1016.6 mb 0.00 in0.0 mm 0.00 in0.0 mm 0.00 in0.0 mm
05:20 AM 74.1°F23.4°C 61.6°F16.4°C 65% 8.5 mph NW13.7 kmh NW 16.8 mph27.0 kmh 30.02 in1016.6 mb 0.00 in0.0 mm 0.00 in0.0 mm 0.00 in0.0 mm
05:25 AM 74.1°F23.4°C 61.6°F16.4°C 65% 8.8 mph NW14.2 kmh NW 17.4 mph28.0 kmh 30.01 in1016.3 mb 0.00 in0.0 mm 0.00 in0.0 mm 0.00 in0.0 mm
05:30 AM 73.9°F23.3°C 61.5°F16.4°C 65% 7.4 mph NW11.9 kmh NW 17.4 mph28.0 kmh 30.02 in1016.6 mb 0.00 in0.0 mm 0.00 in0.0 mm 0.00 in0.0 mm
05:35 AM 73.8°F23.2°C 61.3°F16.3°C 65% 6.2 mph NW10.0 kmh NW 14.5 mph23.3 kmh 30.02 in1016.6 mb 0.00 in0.0 mm 0.00 in0.0 mm 0.00 in0.0 mm
05:40 AM 73.6°F23.1°C 61.1°F16.2°C 65% 6.3 mph NW10.1 kmh NW 12.1 mph19.5 kmh 30.01 in1016.3 mb 0.00 in0.0 mm 0.00 in0.0 mm 0.00 in0.0 mm
05:45 AM 73.8°F23.2°C 61.3°F16.3°C 65% 5.3 mph NW8.5 kmh NW 12.1 mph19.5 kmh 30.02 in1016.6 mb 0.00 in0.0 mm 0.00 in0.0 mm 0.00 in0.0 mm
05:50 AM 73.8°F23.2°C 61.3°F16.3°C 65% 5.2 mph NW8.4 kmh NW 14.5 mph23.3 kmh 30.02 in1016.6 mb 0.00 in0.0 mm 0.00 in0.0 mm 0.00 in0.0 mm
05:55 AM 73.8°F23.2°C 60.9°F16.1°C 64% 5.6 mph NW9.0 kmh NW 14.5 mph23.3 kmh 30.02 in1016.6 mb 0.00 in0.0 mm 0.00 in0.0 mm 0.00 in0.0 mm
06:00 AM 73.9°F23.3°C 61.0°F16.1°C 64% 5.8 mph NW9.3 kmh NW 13.6 mph21.9 kmh 30.02 in1016.6 mb 0.00 in0.0 mm 0.00 in0.0 mm 0.00 in0.0 mm
06:05 AM 74.1°F23.4°C 61.6°F16.4°C 65% 5.9 mph NW9.5 kmh NW 14.5 mph23.3 kmh 30.02 in1016.6 mb 0.00 in0.0 mm 0.00 in0.0 mm 0.00 in0.0 mm
06:10 AM 74.5°F23.6°C 62.0°F16.7°C 65% 6.3 mph NW10.1 kmh NW 14.5 mph23.3 kmh 30.02 in1016.6 mb 0.00 in0.0 mm 0.00 in0.0 mm 0.00 in0.0 mm
06:15 AM 74.5°F23.6°C 62.4°F16.9°C 66% 6.3 mph NNW10.1 kmh NNW 14.5 mph23.3 kmh 30.02 in1016.6 mb 0.00 in0.0 mm 0.00 in0.0 mm 0.00 in0.0 mm
06:20 AM 74.8°F23.8°C 62.8°F17.1°C 66% 5.4 mph NW8.7 kmh NW 12.1 mph19.5 kmh 30.03 in1016.9 mb 0.00 in0.0 mm 0.00 in0.0 mm 0.00 in0.0 mm
06:25 AM 75.0°F23.9°C 62.9°F17.2°C 66% 6.1 mph NW9.8 kmh NW 13.6 mph21.9 kmh 30.03 in1016.9 mb 0.00 in0.0 mm 0.00 in0.0 mm 0.00 in0.0 mm
06:30 AM 75.2°F24.0°C 62.7°F17.1°C 65% 6.3 mph NW10.1 kmh NW 13.6 mph21.9 kmh 30.03 in1016.9 mb 0.00 in0.0 mm 0.00 in0.0 mm 0.00 in0.0 mm
06:35 AM 75.6°F24.2°C 62.6°F17.0°C 64% 5.5 mph NW8.9 kmh NW 13.0 mph20.9 kmh 30.03 in1016.9 mb 0.00 in0.0 mm 0.00 in0.0 mm 0.00 in0.0 mm
06:40 AM 75.7°F24.3°C 62.3°F16.8°C 63% 5.8 mph NW9.3 kmh NW 12.1 mph19.5 kmh 30.03 in1016.9 mb 0.00 in0.0 mm 0.00 in0.0 mm 0.00 in0.0 mm
06:45 AM 76.1°F24.5°C 62.6°F17.0°C 63% 5.0 mph NW8.0 kmh NW 12.1 mph19.5 kmh 30.03 in1016.9 mb 0.00 in0.0 mm 0.00 in0.0 mm 0.00 in0.0 mm
06:50 AM 76.3°F24.6°C 62.3°F16.8°C 62% 5.2 mph NW8.4 kmh NW 14.5 mph23.3 kmh 30.03 in1016.9 mb 0.00 in0.0 mm 0.00 in0.0 mm 0.00 in0.0 mm
06:55 AM 76.5°F24.7°C 61.6°F16.4°C 60% 7.7 mph NW12.4 kmh NW 19.0 mph30.6 kmh 30.03 in1016.9 mb 0.00 in0.0 mm 0.00 in0.0 mm 0.00 in0.0 mm
07:00 AM 76.6°F24.8°C 61.8°F16.6°C 60% 8.8 mph NW14.2 kmh NW 19.0 mph30.6 kmh 30.03 in1016.9 mb 0.00 in0.0 mm 0.00 in0.0 mm 0.00 in0.0 mm
07:05 AM 77.0°F25.0°C 61.6°F16.4°C 59% 8.4 mph NW13.5 kmh NW 17.4 mph28.0 kmh 30.04 in1017.3 mb 0.00 in0.0 mm 0.00 in0.0 mm 0.00 in0.0 mm
07:10 AM 77.2°F25.1°C 61.8°F16.6°C 59% 8.3 mph NW13.4 kmh NW 16.8 mph27.0 kmh 30.03 in1016.9 mb 0.00 in0.0 mm 0.00 in0.0 mm 0.00 in0.0 mm
07:15 AM 77.2°F25.1°C 62.3°F16.8°C 60% 9.1 mph NNW14.6 kmh NNW 16.8 mph27.0 kmh 30.03 in1016.9 mb 0.00 in0.0 mm 0.00 in0.0 mm 0.00 in0.0 mm
07:20 AM 77.4°F25.2°C 62.4°F16.9°C 60% 9.3 mph NW15.0 kmh NW 21.3 mph34.3 kmh 30.04 in1017.3 mb 0.00 in0.0 mm 0.00 in0.0 mm 0.00 in0.0 mm
07:25 AM 77.5°F25.3°C 62.1°F16.7°C 59% 8.8 mph NNW14.2 kmh NNW 21.3 mph34.3 kmh 30.04 in1017.3 mb 0.00 in0.0 mm 0.00 in0.0 mm 0.00 in0.0 mm
07:30 AM 77.7°F25.4°C 62.8°F17.1°C 60% 8.3 mph NNW13.4 kmh NNW 20.6 mph33.2 kmh 30.04 in1017.3 mb 0.00 in0.0 mm 0.00 in0.0 mm 0.00 in0.0 mm
07:35 AM 77.9°F25.5°C 62.0°F16.7°C 58% 8.6 mph NW13.8 kmh NW 17.4 mph28.0 kmh 30.04 in1017.3 mb 0.00 in0.0 mm 0.00 in0.0 mm 0.00 in0.0 mm
07:40 AM 78.1°F25.6°C 62.1°F16.7°C 58% 9.6 mph NW15.4 kmh NW 16.8 mph27.0 kmh 30.04 in1017.3 mb 0.00 in0.0 mm 0.00 in0.0 mm 0.00 in0.0 mm
07:45 AM 78.3°F25.7°C 62.3°F16.8°C 58% 10.6 mph NW17.1 kmh NW 19.7 mph31.7 kmh 30.04 in1017.3 mb 0.00 in0.0 mm 0.00 in0.0 mm 0.00 in0.0 mm
07:50 AM 78.4°F25.8°C 62.0°F16.7°C 57% 10.6 mph NW17.1 kmh NW 19.7 mph31.7 kmh 30.04 in1017.3 mb 0.00 in0.0 mm 0.00 in0.0 mm 0.00 in0.0 mm
07:55 AM 78.6°F25.9°C 62.2°F16.8°C 57% 9.8 mph NNW15.8 kmh NNW 18.3 mph29.5 kmh 30.04 in1017.3 mb 0.00 in0.0 mm 0.00 in0.0 mm 0.00 in0.0 mm
08:00 AM 78.8°F26.0°C 61.8°F16.6°C 56% 9.8 mph N15.8 kmh N 19.7 mph31.7 kmh 30.04 in1017.3 mb 0.00 in0.0 mm 0.00 in0.0 mm 0.00 in0.0 mm
08:05 AM 78.8°F26.0°C 61.3°F16.3°C 55% 10.3 mph NNW16.6 kmh NNW 19.7 mph31.7 kmh 30.04 in1017.3 mb 0.00 in0.0 mm 0.00 in0.0 mm 0.00 in0.0 mm
08:10 AM 79.0°F26.1°C 61.5°F16.4°C 55% 10.7 mph NNW17.2 kmh NNW 19.7 mph31.7 kmh 30.04 in1017.3 mb 0.00 in0.0 mm 0.00 in0.0 mm 0.00 in0.0 mm
08:15 AM 79.2°F26.2°C 61.1°F16.2°C 54% 10.1 mph NNW16.3 kmh NNW 19.7 mph31.7 kmh 30.04 in1017.3 mb 0.00 in0.0 mm 0.00 in0.0 mm 0.00 in0.0 mm
08:20 AM 79.2°F26.2°C 61.6°F16.4°C 55% 9.9 mph NNW15.9 kmh NNW 19.0 mph30.6 kmh 30.04 in1017.3 mb 0.00 in0.0 mm 0.00 in0.0 mm 0.00 in0.0 mm
08:25 AM 79.2°F26.2°C 61.6°F16.4°C 55% 10.1 mph N16.3 kmh N 19.0 mph30.6 kmh 30.04 in1017.3 mb 0.00 in0.0 mm 0.00 in0.0 mm 0.00 in0.0 mm
08:30 AM 79.5°F26.4°C 62.0°F16.7°C 55% 10.4 mph NNW16.7 kmh NNW 19.0 mph30.6 kmh 30.04 in1017.3 mb 0.00 in0.0 mm 0.00 in0.0 mm 0.00 in0.0 mm
08:35 AM 79.7°F26.5°C 62.1°F16.7°C 55% 10.2 mph NW16.4 kmh NW 18.3 mph29.5 kmh 30.04 in1017.3 mb 0.00 in0.0 mm 0.00 in0.0 mm 0.00 in0.0 mm
08:40 AM 80.2°F26.8°C 62.1°F16.7°C 54% 8.7 mph NNW14.0 kmh NNW 17.4 mph28.0 kmh 30.04 in1017.3 mb 0.00 in0.0 mm 0.00 in0.0 mm 0.00 in0.0 mm
08:45 AM 80.6°F27.0°C 61.4°F16.3°C 52% 8.3 mph NW13.4 kmh NW 16.8 mph27.0 kmh 30.04 in1017.3 mb 0.00 in0.0 mm 0.00 in0.0 mm 0.00 in0.0 mm
08:50 AM 80.4°F26.9°C 60.1°F15.6°C 50% 10.2 mph NW16.4 kmh NW 20.6 mph33.2 kmh 30.04 in1017.3 mb 0.00 in0.0 mm 0.00 in0.0 mm 0.00 in0.0 mm
08:55 AM 80.2°F26.8°C 61.6°F16.4°C 53% 10.8 mph NNW17.4 kmh NNW 20.6 mph33.2 kmh 30.04 in1017.3 mb 0.00 in0.0 mm 0.00 in0.0 mm 0.00 in0.0 mm
09:00 AM 80.4°F26.9°C 61.8°F16.6°C 53% 10.3 mph NW16.6 kmh NW 19.7 mph31.7 kmh 30.04 in1017.3 mb 0.00 in0.0 mm 0.00 in0.0 mm 0.00 in0.0 mm
09:05 AM 80.2°F26.8°C 61.6°F16.4°C 53% 11.2 mph NW18.0 kmh NW 21.3 mph34.3 kmh 30.04 in1017.3 mb 0.00 in0.0 mm 0.00 in0.0 mm 0.00 in0.0 mm
09:10 AM 80.6°F27.0°C 61.9°F16.6°C 53% 10.7 mph NW17.2 kmh NW 21.3 mph34.3 kmh 30.04 in1017.3 mb 0.00 in0.0 mm 0.00 in0.0 mm 0.00 in0.0 mm
09:15 AM 80.8°F27.1°C 62.1°F16.7°C 53% 9.7 mph NW15.6 kmh NW 19.7 mph31.7 kmh 30.05 in1017.6 mb 0.00 in0.0 mm 0.00 in0.0 mm 0.00 in0.0 mm
09:20 AM 81.0°F27.2°C 61.7°F16.5°C 52% 9.7 mph NW15.6 kmh NW 19.7 mph31.7 kmh 30.04 in1017.3 mb 0.00 in0.0 mm 0.00 in0.0 mm 0.00 in0.0 mm
09:25 AM 81.5°F27.5°C 61.7°F16.5°C 51% 8.6 mph NW13.8 kmh NW 19.7 mph31.7 kmh 30.05 in1017.6 mb 0.00 in0.0 mm 0.00 in0.0 mm 0.00 in0.0 mm
09:30 AM 81.7°F27.6°C 61.8°F16.6°C 51% 8.5 mph NW13.7 kmh NW 18.3 mph29.5 kmh 30.05 in1017.6 mb 0.00 in0.0 mm 0.00 in0.0 mm 0.00 in0.0 mm
09:35 AM 81.7°F27.6°C 61.8°F16.6°C 51% 9.2 mph NW14.8 kmh NW 18.3 mph29.5 kmh 30.05 in1017.6 mb 0.00 in0.0 mm 0.00 in0.0 mm 0.00 in0.0 mm
09:40 AM 81.5°F27.5°C 61.7°F16.5°C 51% 10.2 mph NNW16.4 kmh NNW 19.7 mph31.7 kmh 30.05 in1017.6 mb 0.00 in0.0 mm 0.00 in0.0 mm 0.00 in0.0 mm
09:45 AM 81.7°F27.6°C 61.3°F16.3°C 50% 10.6 mph NW17.1 kmh NW 19.7 mph31.7 kmh 30.05 in1017.6 mb 0.00 in0.0 mm 0.00 in0.0 mm 0.00 in0.0 mm
09:50 AM 81.7°F27.6°C 61.3°F16.3°C 50% 10.5 mph NW16.9 kmh NW 21.3 mph34.3 kmh 30.05 in1017.6 mb 0.00 in0.0 mm 0.00 in0.0 mm 0.00 in0.0 mm
09:55 AM 81.9°F27.7°C 61.4°F16.3°C 50% 9.9 mph NW15.9 kmh NW 21.3 mph34.3 kmh 30.05 in1017.6 mb 0.00 in0.0 mm 0.00 in0.0 mm 0.00 in0.0 mm
10:00 AM 82.2°F27.9°C 61.8°F16.6°C 50% 9.0 mph NW14.5 kmh NW 20.6 mph33.2 kmh 30.05 in1017.6 mb 0.00 in0.0 mm 0.00 in0.0 mm 0.00 in0.0 mm
10:05 AM 82.0°F27.8°C 61.6°F16.4°C 50% 10.0 mph NNW16.1 kmh NNW 20.6 mph33.2 kmh 30.05 in1017.6 mb 0.00 in0.0 mm 0.00 in0.0 mm 0.00 in0.0 mm
10:10 AM 82.2°F27.9°C 61.8°F16.6°C 50% 9.3 mph NNW15.0 kmh NNW 20.6 mph33.2 kmh 30.05 in1017.6 mb 0.00 in0.0 mm 0.00 in0.0 mm 0.00 in0.0 mm
10:15 AM 82.8°F28.2°C 61.1°F16.2°C 48% 8.5 mph NW13.7 kmh NW 19.0 mph30.6 kmh 30.05 in1017.6 mb 0.00 in0.0 mm 0.00 in0.0 mm 0.00 in0.0 mm
10:20 AM 82.6°F28.1°C 61.5°F16.4°C 49% 9.3 mph N15.0 kmh N 19.0 mph30.6 kmh 30.05 in1017.6 mb 0.00 in0.0 mm 0.00 in0.0 mm 0.00 in0.0 mm
10:25 AM 82.4°F28.0°C 61.4°F16.3°C 49% 10.3 mph NNW16.6 kmh NNW 20.6 mph33.2 kmh 30.05 in1017.6 mb 0.00 in0.0 mm 0.00 in0.0 mm 0.00 in0.0 mm
10:30 AM 82.6°F28.1°C 61.0°F16.1°C 48% 11.0 mph NW17.7 kmh NW 20.6 mph33.2 kmh 30.05 in1017.6 mb 0.00 in0.0 mm 0.00 in0.0 mm 0.00 in0.0 mm
10:35 AM 82.6°F28.1°C 60.4°F15.8°C 47% 11.0 mph NW17.7 kmh NW 22.8 mph36.7 kmh 30.04 in1017.3 mb 0.00 in0.0 mm 0.00 in0.0 mm 0.00 in0.0 mm
10:40 AM 82.9°F28.3°C 60.7°F15.9°C 47% 9.8 mph NW15.8 kmh NW 22.8 mph36.7 kmh 30.04 in1017.3 mb 0.00 in0.0 mm 0.00 in0.0 mm 0.00 in0.0 mm
10:45 AM 83.3°F28.5°C 60.4°F15.8°C 46% 9.3 mph NW15.0 kmh NW 19.0 mph30.6 kmh 30.05 in1017.6 mb 0.00 in0.0 mm 0.00 in0.0 mm 0.00 in0.0 mm
10:50 AM 83.3°F28.5°C 59.8°F15.4°C 45% 10.2 mph NW16.4 kmh NW 22.1 mph35.6 kmh 30.04 in1017.3 mb 0.00 in0.0 mm 0.00 in0.0 mm 0.00 in0.0 mm
10:55 AM 83.7°F28.7°C 59.5°F15.3°C 44% 10.2 mph NW16.4 kmh NW 22.1 mph35.6 kmh 30.05 in1017.6 mb 0.00 in0.0 mm 0.00 in0.0 mm 0.00 in0.0 mm
11:00 AM 83.7°F28.7°C 60.1°F15.6°C 45% 10.3 mph NW16.6 kmh NW 21.3 mph34.3 kmh 30.05 in1017.6 mb 0.00 in0.0 mm 0.00 in0.0 mm 0.00 in0.0 mm
11:05 AM 83.7°F28.7°C 60.1°F15.6°C 45% 10.3 mph NNW16.6 kmh NNW 21.3 mph34.3 kmh 30.05 in1017.6 mb 0.00 in0.0 mm 0.00 in0.0 mm 0.00 in0.0 mm
11:10 AM 83.5°F28.6°C 59.3°F15.2°C 44% 10.8 mph NNW17.4 kmh NNW 21.3 mph34.3 kmh 30.04 in1017.3 mb 0.00 in0.0 mm 0.00 in0.0 mm 0.00 in0.0 mm
11:15 AM 83.1°F28.4°C 60.2°F15.7°C 46% 11.7 mph NW18.8 kmh NW 22.1 mph35.6 kmh 30.05 in1017.6 mb 0.00 in0.0 mm 0.00 in0.0 mm 0.00 in0.0 mm
11:20 AM 83.3°F28.5°C 61.0°F16.1°C 47% 11.9 mph NW19.2 kmh NW 23.5 mph37.8 kmh 30.05 in1017.6 mb 0.00 in0.0 mm 0.00 in0.0 mm 0.00 in0.0 mm
11:25 AM 83.1°F28.4°C 62.0°F16.7°C 49% 11.6 mph NW18.7 kmh NW 23.5 mph37.8 kmh 30.05 in1017.6 mb 0.00 in0.0 mm 0.00 in0.0 mm 0.00 in0.0 mm
11:30 AM 82.9°F28.3°C 61.3°F16.3°C 48% 11.0 mph NW17.7 kmh NW 22.1 mph35.6 kmh 30.05 in1017.6 mb 0.00 in0.0 mm 0.00 in0.0 mm 0.00 in0.0 mm
11:35 AM 83.3°F28.5°C 61.0°F16.1°C 47% 10.4 mph NW16.7 kmh NW 20.6 mph33.2 kmh 30.05 in1017.6 mb 0.00 in0.0 mm 0.00 in0.0 mm 0.00 in0.0 mm
11:40 AM 83.1°F28.4°C 60.9°F16.1°C 47% 12.0 mph NW19.3 kmh NW 24.4 mph39.3 kmh 30.05 in1017.6 mb 0.00 in0.0 mm 0.00 in0.0 mm 0.00 in0.0 mm
11:45 AM 83.1°F28.4°C 60.9°F16.1°C 47% 13.0 mph NW20.9 kmh NW 24.4 mph39.3 kmh 30.05 in1017.6 mb 0.00 in0.0 mm 0.00 in0.0 mm 0.00 in0.0 mm
11:50 AM 82.9°F28.3°C 59.5°F15.3°C 45% 12.1 mph NW19.5 kmh NW 24.4 mph39.3 kmh 30.05 in1017.6 mb 0.00 in0.0 mm 0.00 in0.0 mm 0.00 in0.0 mm
11:55 AM 83.1°F28.4°C 59.0°F15.0°C 44% 12.4 mph NW20.0 kmh NW 24.4 mph39.3 kmh 30.04 in1017.3 mb 0.00 in0.0 mm 0.00 in0.0 mm 0.00 in0.0 mm
12:00 PM 83.3°F28.5°C 58.5°F14.7°C 43% 12.1 mph NW19.5 kmh NW 24.4 mph39.3 kmh 30.05 in1017.6 mb 0.00 in0.0 mm 0.00 in0.0 mm 0.00 in0.0 mm
12:05 PM 83.7°F28.7°C 58.8°F14.9°C 43% 12.5 mph NW20.1 kmh NW 25.9 mph41.7 kmh 30.04 in1017.3 mb 0.00 in0.0 mm 0.00 in0.0 mm 0.00 in0.0 mm
12:10 PM 83.5°F28.6°C 58.0°F14.4°C 42% 13.0 mph NW20.9 kmh NW 25.9 mph41.7 kmh 30.04 in1017.3 mb 0.00 in0.0 mm 0.00 in0.0 mm 0.00 in0.0 mm
12:15 PM 83.3°F28.5°C 58.5°F14.7°C 43% 13.4 mph NW21.6 kmh NW 25.1 mph40.4 kmh 30.04 in1017.3 mb 0.00 in0.0 mm 0.00 in0.0 mm 0.00 in0.0 mm
12:20 PM 84.0°F28.9°C 59.8°F15.4°C 44% 13.0 mph NW20.9 kmh NW 25.1 mph40.4 kmh 30.04 in1017.3 mb 0.00 in0.0 mm 0.00 in0.0 mm 0.00 in0.0 mm
12:25 PM 84.6°F29.2°C 59.7°F15.4°C 43% 10.8 mph NNW17.4 kmh NNW 20.6 mph33.2 kmh 30.04 in1017.3 mb 0.00 in0.0 mm 0.00 in0.0 mm 0.00 in0.0 mm
12:30 PM 84.6°F29.2°C 59.7°F15.4°C 43% 11.1 mph NW17.9 kmh NW 25.1 mph40.4 kmh 30.04 in1017.3 mb 0.00 in0.0 mm 0.00 in0.0 mm 0.00 in0.0 mm
12:35 PM 84.6°F29.2°C 59.0°F15.0°C 42% 11.1 mph NW17.9 kmh NW 25.1 mph40.4 kmh 30.04 in1017.3 mb 0.00 in0.0 mm 0.00 in0.0 mm 0.00 in0.0 mm
12:40 PM 84.4°F29.1°C 59.5°F15.3°C 43% 11.1 mph NNW17.9 kmh NNW 25.1 mph40.4 kmh 30.04 in1017.3 mb 0.00 in0.0 mm 0.00 in0.0 mm 0.00 in0.0 mm
12:45 PM 84.6°F29.2°C 59.7°F15.4°C 43% 11.1 mph NW17.9 kmh NW 22.8 mph36.7 kmh 30.04 in1017.3 mb 0.00 in0.0 mm 0.00 in0.0 mm 0.00 in0.0 mm
12:50 PM 84.2°F29.0°C 60.0°F15.6°C 44% 10.5 mph NW16.9 kmh NW 22.1 mph35.6 kmh 30.04 in1017.3 mb 0.00 in0.0 mm 0.00 in0.0 mm 0.00 in0.0 mm
12:55 PM 84.2°F29.0°C 60.0°F15.6°C 44% 10.8 mph NW17.4 kmh NW 22.1 mph35.6 kmh 30.04 in1017.3 mb 0.00 in0.0 mm 0.00 in0.0 mm 0.00 in0.0 mm
01:00 PM 84.2°F29.0°C 60.0°F15.6°C 44% 10.7 mph NW17.2 kmh NW 20.6 mph33.2 kmh 30.04 in1017.3 mb 0.00 in0.0 mm 0.00 in0.0 mm 0.00 in0.0 mm
01:05 PM 84.2°F29.0°C 58.7°F14.8°C 42% 10.4 mph NW16.7 kmh NW 21.3 mph34.3 kmh 30.04 in1017.3 mb 0.00 in0.0 mm 0.00 in0.0 mm 0.00 in0.0 mm
01:10 PM 84.2°F29.0°C 59.3°F15.2°C 43% 10.9 mph NW17.5 kmh NW 21.3 mph34.3 kmh 30.04 in1017.3 mb 0.00 in0.0 mm 0.00 in0.0 mm 0.00 in0.0 mm
01:15 PM 84.2°F29.0°C 59.3°F15.2°C 43% 12.0 mph NW19.3 kmh NW 19.0 mph30.6 kmh 30.03 in1016.9 mb 0.00 in0.0 mm 0.00 in0.0 mm 0.00 in0.0 mm
01:20 PM 84.6°F29.2°C 59.0°F15.0°C 42% 11.3 mph WNW18.2 kmh WNW 20.6 mph33.2 kmh 30.04 in1017.3 mb 0.00 in0.0 mm 0.00 in0.0 mm 0.00 in0.0 mm
01:25 PM 84.4°F29.1°C 59.5°F15.3°C 43% 10.8 mph NNW17.4 kmh NNW 20.6 mph33.2 kmh 30.04 in1017.3 mb 0.00 in0.0 mm 0.00 in0.0 mm 0.00 in0.0 mm
01:30 PM 84.4°F29.1°C 59.5°F15.3°C 43% 11.3 mph NNW18.2 kmh NNW 23.5 mph37.8 kmh 30.04 in1017.3 mb 0.00 in0.0 mm 0.00 in0.0 mm 0.00 in0.0 mm
01:35 PM 84.4°F29.1°C 59.5°F15.3°C 43% 11.3 mph NW18.2 kmh NW 23.5 mph37.8 kmh 30.04 in1017.3 mb 0.00 in0.0 mm 0.00 in0.0 mm 0.00 in0.0 mm
01:40 PM 84.2°F29.0°C 59.3°F15.2°C 43% 11.6 mph NW18.7 kmh NW 22.8 mph36.7 kmh 30.04 in1017.3 mb 0.00 in0.0 mm 0.00 in0.0 mm 0.00 in0.0 mm
01:45 PM 84.2°F29.0°C 59.3°F15.2°C 43% 11.6 mph NNW18.7 kmh NNW 22.8 mph36.7 kmh 30.04 in1017.3 mb 0.00 in0.0 mm 0.00 in0.0 mm 0.00 in0.0 mm
01:50 PM 84.6°F29.2°C 59.0°F15.0°C 42% 11.0 mph NNW17.7 kmh NNW 22.8 mph36.7 kmh 30.04 in1017.3 mb 0.00 in0.0 mm 0.00 in0.0 mm 0.00 in0.0 mm
01:55 PM 84.6°F29.2°C 59.0°F15.0°C 42% 10.1 mph NNW16.3 kmh NNW 19.7 mph31.7 kmh 30.04 in1017.3 mb 0.00 in0.0 mm 0.00 in0.0 mm 0.00 in0.0 mm
02:00 PM 84.7°F29.3°C 59.2°F15.1°C 42% 10.8 mph NW17.4 kmh NW 19.7 mph31.7 kmh 30.04 in1017.3 mb 0.00 in0.0 mm 0.00 in0.0 mm 0.00 in0.0 mm
02:05 PM 84.2°F29.0°C 58.7°F14.8°C 42% 12.7 mph NW20.4 kmh NW 23.5 mph37.8 kmh 30.04 in1017.3 mb 0.00 in0.0 mm 0.00 in0.0 mm 0.00 in0.0 mm
02:10 PM 84.2°F29.0°C 58.7°F14.8°C 42% 12.6 mph NW20.3 kmh NW 23.5 mph37.8 kmh 30.04 in1017.3 mb 0.00 in0.0 mm 0.00 in0.0 mm 0.00 in0.0 mm
02:15 PM 84.2°F29.0°C 58.0°F14.4°C 41% 12.4 mph NW20.0 kmh NW 24.4 mph39.3 kmh 30.04 in1017.3 mb 0.00 in0.0 mm 0.00 in0.0 mm 0.00 in0.0 mm
02:20 PM 84.2°F29.0°C 58.0°F14.4°C 41% 11.5 mph NW18.5 kmh NW 24.4 mph39.3 kmh 30.04 in1017.3 mb 0.00 in0.0 mm 0.00 in0.0 mm 0.00 in0.0 mm
02:25 PM 84.6°F29.2°C 57.6°F14.2°C 40% 11.0 mph NW17.7 kmh NW 24.4 mph39.3 kmh 30.04 in1017.3 mb 0.00 in0.0 mm 0.00 in0.0 mm 0.00 in0.0 mm
02:30 PM 84.7°F29.3°C 57.8°F14.3°C 40% 11.8 mph NW19.0 kmh NW 23.5 mph37.8 kmh 30.04 in1017.3 mb 0.00 in0.0 mm 0.00 in0.0 mm 0.00 in0.0 mm
02:35 PM 85.1°F29.5°C 56.7°F13.7°C 38% 10.9 mph NW17.5 kmh NW 22.8 mph36.7 kmh 30.04 in1017.3 mb 0.00 in0.0 mm 0.00 in0.0 mm 0.00 in0.0 mm
02:40 PM 84.9°F29.4°C 57.2°F14.0°C 39% 10.9 mph NW17.5 kmh NW 22.1 mph35.6 kmh 30.04 in1017.3 mb 0.00 in0.0 mm 0.00 in0.0 mm 0.00 in0.0 mm
02:45 PM 84.6°F29.2°C 58.3°F14.6°C 41% 11.4 mph NW18.3 kmh NW 22.1 mph35.6 kmh 30.04 in1017.3 mb 0.00 in0.0 mm 0.00 in0.0 mm 0.00 in0.0 mm
02:50 PM 84.6°F29.2°C 58.3°F14.6°C 41% 11.4 mph NW18.3 kmh NW 21.3 mph34.3 kmh 30.04 in1017.3 mb 0.00 in0.0 mm 0.00 in0.0 mm 0.00 in0.0 mm
02:55 PM 84.4°F29.1°C 58.2°F14.6°C 41% 11.6 mph NW18.7 kmh NW 19.0 mph30.6 kmh 30.04 in1017.3 mb 0.00 in0.0 mm 0.00 in0.0 mm 0.00 in0.0 mm
03:00 PM 84.7°F29.3°C 59.8°F15.4°C 43% 10.9 mph NW17.5 kmh NW 20.6 mph33.2 kmh 30.04 in1017.3 mb 0.00 in0.0 mm 0.00 in0.0 mm 0.00 in0.0 mm
03:05 PM 84.6°F29.2°C 59.7°F15.4°C 43% 9.8 mph NW15.8 kmh NW 21.3 mph34.3 kmh 30.04 in1017.3 mb 0.00 in0.0 mm 0.00 in0.0 mm 0.00 in0.0 mm
03:10 PM 84.9°F29.4°C 59.3°F15.2°C 42% 8.9 mph NW14.3 kmh NW 21.3 mph34.3 kmh 30.04 in1017.3 mb 0.00 in0.0 mm 0.00 in0.0 mm 0.00 in0.0 mm
03:15 PM 85.3°F29.6°C 60.3°F15.7°C 43% 8.7 mph NW14.0 kmh NW 19.0 mph30.6 kmh 30.04 in1017.3 mb 0.00 in0.0 mm 0.00 in0.0 mm 0.00 in0.0 mm
03:20 PM 84.7°F29.3°C 60.5°F15.8°C 44% 9.9 mph NW15.9 kmh NW 19.0 mph30.6 kmh 30.04 in1017.3 mb 0.00 in0.0 mm 0.00 in0.0 mm 0.00 in0.0 mm
03:25 PM 84.4°F29.1°C 60.8°F16.0°C 45% 10.3 mph NW16.6 kmh NW 21.3 mph34.3 kmh 30.04 in1017.3 mb 0.00 in0.0 mm 0.00 in0.0 mm 0.00 in0.0 mm
03:30 PM 84.4°F29.1°C 60.8°F16.0°C 45% 9.3 mph NW15.0 kmh NW 21.3 mph34.3 kmh 30.04 in1017.3 mb 0.00 in0.0 mm 0.00 in0.0 mm 0.00 in0.0 mm
03:35 PM 84.7°F29.3°C 59.2°F15.1°C 42% 8.5 mph NW13.7 kmh NW 19.0 mph30.6 kmh 30.04 in1017.3 mb 0.00 in0.0 mm 0.00 in0.0 mm 0.00 in0.0 mm
03:40 PM 84.6°F29.2°C 60.3°F15.7°C 44% 8.7 mph NW14.0 kmh NW 21.3 mph34.3 kmh 30.04 in1017.3 mb 0.00 in0.0 mm 0.00 in0.0 mm 0.00 in0.0 mm
03:45 PM 84.7°F29.3°C 59.8°F15.4°C 43% 8.5 mph NW13.7 kmh NW 21.3 mph34.3 kmh 30.04 in1017.3 mb 0.00 in0.0 mm 0.00 in0.0 mm 0.00 in0.0 mm
03:50 PM 84.7°F29.3°C 60.5°F15.8°C 44% 7.9 mph NW12.7 kmh NW 18.3 mph29.5 kmh 30.04 in1017.3 mb 0.00 in0.0 mm 0.00 in0.0 mm 0.00 in0.0 mm
03:55 PM 84.6°F29.2°C 59.7°F15.4°C 43% 8.7 mph NW14.0 kmh NW 17.4 mph28.0 kmh 30.04 in1017.3 mb 0.00 in0.0 mm 0.00 in0.0 mm 0.00 in0.0 mm
04:00 PM 84.6°F29.2°C 60.3°F15.7°C 44% 8.9 mph NW14.3 kmh NW 17.4 mph28.0 kmh 30.04 in1017.3 mb 0.00 in0.0 mm 0.00 in0.0 mm 0.00 in0.0 mm
04:05 PM 84.6°F29.2°C 59.7°F15.4°C 43% 9.1 mph NNW14.6 kmh NNW 17.4 mph28.0 kmh 30.04 in1017.3 mb 0.00 in0.0 mm 0.00 in0.0 mm 0.00 in0.0 mm
04:10 PM 84.7°F29.3°C 59.8°F15.4°C 43% 8.9 mph NW14.3 kmh NW 16.8 mph27.0 kmh 30.04 in1017.3 mb 0.00 in0.0 mm 0.00 in0.0 mm 0.00 in0.0 mm
04:15 PM 84.6°F29.2°C 60.3°F15.7°C 44% 9.4 mph NW15.1 kmh NW 20.6 mph33.2 kmh 30.04 in1017.3 mb 0.00 in0.0 mm 0.00 in0.0 mm 0.00 in0.0 mm
04:20 PM 84.4°F29.1°C 60.1°F15.6°C 44% 10.1 mph NW16.3 kmh NW 20.6 mph33.2 kmh 30.04 in1017.3 mb 0.00 in0.0 mm 0.00 in0.0 mm 0.00 in0.0 mm
04:25 PM 84.2°F29.0°C 60.6°F15.9°C 45% 10.0 mph NNW16.1 kmh NNW 20.6 mph33.2 kmh 30.04 in1017.3 mb 0.00 in0.0 mm 0.00 in0.0 mm 0.00 in0.0 mm
04:30 PM 84.0°F28.9°C 60.4°F15.8°C 45% 9.9 mph NNW15.9 kmh NNW 22.8 mph36.7 kmh 30.04 in1017.3 mb 0.00 in0.0 mm 0.00 in0.0 mm 0.00 in0.0 mm
04:35 PM 84.0°F28.9°C 61.1°F16.2°C 46% 9.2 mph NNW14.8 kmh NNW 22.8 mph36.7 kmh 30.04 in1017.3 mb 0.00 in0.0 mm 0.00 in0.0 mm 0.00 in0.0 mm
04:40 PM 84.4°F29.1°C 60.8°F16.0°C 45% 6.9 mph NNW11.1 kmh NNW 22.8 mph36.7 kmh 30.04 in1017.3 mb 0.00 in0.0 mm 0.00 in0.0 mm 0.00 in0.0 mm
04:45 PM 84.6°F29.2°C 61.6°F16.4°C 46% 6.2 mph N10.0 kmh N 13.6 mph21.9 kmh 30.04 in1017.3 mb 0.00 in0.0 mm 0.00 in0.0 mm 0.00 in0.0 mm
04:50 PM 84.4°F29.1°C 61.4°F16.3°C 46% 7.9 mph NNW12.7 kmh NNW 15.2 mph24.5 kmh 30.04 in1017.3 mb 0.00 in0.0 mm 0.00 in0.0 mm 0.00 in0.0 mm
04:55 PM 84.4°F29.1°C 60.8°F16.0°C 45% 7.3 mph NW11.7 kmh NW 15.2 mph24.5 kmh 30.04 in1017.3 mb 0.00 in0.0 mm 0.00 in0.0 mm 0.00 in0.0 mm
05:00 PM 84.4°F29.1°C 60.8°F16.0°C 45% 7.6 mph NNW12.2 kmh NNW 17.4 mph28.0 kmh 30.04 in1017.3 mb 0.00 in0.0 mm 0.00 in0.0 mm 0.00 in0.0 mm
05:05 PM 84.2°F29.0°C 59.3°F15.2°C 43% 9.6 mph NNW15.4 kmh NNW 23.5 mph37.8 kmh 30.04 in1017.3 mb 0.00 in0.0 mm 0.00 in0.0 mm 0.00 in0.0 mm
05:10 PM 84.0°F28.9°C 58.5°F14.7°C 42% 10.6 mph NNW17.1 kmh NNW 23.5 mph37.8 kmh 30.04 in1017.3 mb 0.00 in0.0 mm 0.00 in0.0 mm 0.00 in0.0 mm
05:15 PM 83.7°F28.7°C 58.8°F14.9°C 43% 10.6 mph NNW17.1 kmh NNW 19.0 mph30.6 kmh 30.04 in1017.3 mb 0.00 in0.0 mm 0.00 in0.0 mm 0.00 in0.0 mm
05:20 PM 83.8°F28.8°C 59.0°F15.0°C 43% 9.6 mph NNW15.4 kmh NNW 20.6 mph33.2 kmh 30.04 in1017.3 mb 0.00 in0.0 mm 0.00 in0.0 mm 0.00 in0.0 mm
05:25 PM 83.8°F28.8°C 57.7°F14.3°C 41% 9.5 mph N15.3 kmh N 22.1 mph35.6 kmh 30.03 in1016.9 mb 0.00 in0.0 mm 0.00 in0.0 mm 0.00 in0.0 mm
05:30 PM 83.8°F28.8°C 58.3°F14.6°C 42% 9.7 mph N15.6 kmh N 22.1 mph35.6 kmh 30.03 in1016.9 mb 0.00 in0.0 mm 0.00 in0.0 mm 0.00 in0.0 mm
05:35 PM 83.7°F28.7°C 58.2°F14.6°C 42% 9.6 mph N15.4 kmh N 22.1 mph35.6 kmh 30.03 in1016.9 mb 0.00 in0.0 mm 0.00 in0.0 mm 0.00 in0.0 mm
05:40 PM 83.7°F28.7°C 57.5°F14.2°C 41% 9.6 mph N15.4 kmh N 22.1 mph35.6 kmh 30.04 in1017.3 mb 0.00 in0.0 mm 0.00 in0.0 mm 0.00 in0.0 mm
05:45 PM 83.8°F28.8°C 58.3°F14.6°C 42% 7.9 mph N12.7 kmh N 17.4 mph28.0 kmh 30.04 in1017.3 mb 0.00 in0.0 mm 0.00 in0.0 mm 0.00 in0.0 mm
05:50 PM 83.8°F28.8°C 58.3°F14.6°C 42% 7.3 mph N11.7 kmh N 17.4 mph28.0 kmh 30.04 in1017.3 mb 0.00 in0.0 mm 0.00 in0.0 mm 0.00 in0.0 mm
05:55 PM 83.8°F28.8°C 58.3°F14.6°C 42% 7.3 mph N11.7 kmh N 17.4 mph28.0 kmh 30.04 in1017.3 mb 0.00 in0.0 mm 0.00 in0.0 mm 0.00 in0.0 mm
06:00 PM 83.8°F28.8°C 58.3°F14.6°C 42% 7.1 mph N11.4 kmh N 14.5 mph23.3 kmh 30.04 in1017.3 mb 0.00 in0.0 mm 0.00 in0.0 mm 0.00 in0.0 mm
06:05 PM 83.7°F28.7°C 57.5°F14.2°C 41% 8.3 mph N13.4 kmh N 17.4 mph28.0 kmh 30.04 in1017.3 mb 0.00 in0.0 mm 0.00 in0.0 mm 0.00 in0.0 mm
06:10 PM 83.5°F28.6°C 58.0°F14.4°C 42% 8.3 mph N13.4 kmh N 17.4 mph28.0 kmh 30.04 in1017.3 mb 0.00 in0.0 mm 0.00 in0.0 mm 0.00 in0.0 mm
06:15 PM 83.5°F28.6°C 58.0°F14.4°C 42% 7.2 mph N11.6 kmh N 13.6 mph21.9 kmh 30.04 in1017.3 mb 0.00 in0.0 mm 0.00 in0.0 mm 0.00 in0.0 mm
06:20 PM 83.3°F28.5°C 57.9°F14.4°C 42% 7.4 mph N11.9 kmh N 17.4 mph28.0 kmh 30.04 in1017.3 mb 0.00 in0.0 mm 0.00 in0.0 mm 0.00 in0.0 mm
06:25 PM 83.3°F28.5°C 57.9°F14.4°C 42% 7.0 mph N11.3 kmh N 17.4 mph28.0 kmh 30.04 in1017.3 mb 0.00 in0.0 mm 0.00 in0.0 mm 0.00 in0.0 mm
06:30 PM 83.1°F28.4°C 57.7°F14.3°C 42% 6.1 mph NNW9.8 kmh NNW 14.5 mph23.3 kmh 30.04 in1017.3 mb 0.00 in0.0 mm 0.00 in0.0 mm 0.00 in0.0 mm
06:35 PM 82.9°F28.3°C 58.2°F14.6°C 43% 6.4 mph NW10.3 kmh NW 13.0 mph20.9 kmh 30.04 in1017.3 mb 0.00 in0.0 mm 0.00 in0.0 mm 0.00 in0.0 mm
06:40 PM 82.8°F28.2°C 58.0°F14.4°C 43% 6.4 mph NW10.3 kmh NW 13.6 mph21.9 kmh 30.04 in1017.3 mb 0.00 in0.0 mm 0.00 in0.0 mm 0.00 in0.0 mm
06:45 PM 82.8°F28.2°C 58.0°F14.4°C 43% 5.8 mph NW9.3 kmh NW 13.6 mph21.9 kmh 30.04 in1017.3 mb 0.00 in0.0 mm 0.00 in0.0 mm 0.00 in0.0 mm
06:50 PM 82.4°F28.0°C 57.7°F14.3°C 43% 5.0 mph NW8.0 kmh NW 12.1 mph19.5 kmh 30.04 in1017.3 mb 0.00 in0.0 mm 0.00 in0.0 mm 0.00 in0.0 mm
06:55 PM 82.2°F27.9°C 58.2°F14.6°C 44% 4.3 mph NW6.9 kmh NW 9.2 mph14.8 kmh 30.04 in1017.3 mb 0.00 in0.0 mm 0.00 in0.0 mm 0.00 in0.0 mm
07:00 PM 82.2°F27.9°C 58.2°F14.6°C 44% 4.4 mph NW7.1 kmh NW 9.8 mph15.8 kmh 30.04 in1017.3 mb 0.00 in0.0 mm 0.00 in0.0 mm 0.00 in0.0 mm
07:05 PM 82.2°F27.9°C 58.2°F14.6°C 44% 5.1 mph NW8.2 kmh NW 11.4 mph18.3 kmh 30.04 in1017.3 mb 0.00 in0.0 mm 0.00 in0.0 mm 0.00 in0.0 mm
07:10 PM 82.0°F27.8°C 58.0°F14.4°C 44% 6.3 mph NW10.1 kmh NW 14.5 mph23.3 kmh 30.04 in1017.3 mb 0.00 in0.0 mm 0.00 in0.0 mm 0.00 in0.0 mm
07:15 PM 81.9°F27.7°C 57.9°F14.4°C 44% 6.7 mph NW10.8 kmh NW 14.5 mph23.3 kmh 30.04 in1017.3 mb 0.00 in0.0 mm 0.00 in0.0 mm 0.00 in0.0 mm
07:20 PM 81.7°F27.6°C 58.3°F14.6°C 45% 6.4 mph NW10.3 kmh NW 13.0 mph20.9 kmh 30.04 in1017.3 mb 0.00 in0.0 mm 0.00 in0.0 mm 0.00 in0.0 mm
07:25 PM 81.1°F27.3°C 58.4°F14.7°C 46% 5.1 mph NW8.2 kmh NW 11.4 mph18.3 kmh 30.04 in1017.3 mb 0.00 in0.0 mm 0.00 in0.0 mm 0.00 in0.0 mm
07:30 PM 80.8°F27.1°C 58.7°F14.8°C 47% 4.7 mph NW7.6 kmh NW 13.6 mph21.9 kmh 30.05 in1017.6 mb 0.00 in0.0 mm 0.00 in0.0 mm 0.00 in0.0 mm
07:35 PM 80.4°F26.9°C 59.0°F15.0°C 48% 4.8 mph NW7.7 kmh NW 13.6 mph21.9 kmh 30.05 in1017.6 mb 0.00 in0.0 mm 0.00 in0.0 mm 0.00 in0.0 mm
07:40 PM 80.1°F26.7°C 58.6°F14.8°C 48% 4.2 mph NW6.8 kmh NW 13.0 mph20.9 kmh 30.05 in1017.6 mb 0.00 in0.0 mm 0.00 in0.0 mm 0.00 in0.0 mm
07:45 PM 79.9°F26.6°C 58.5°F14.7°C 48% 4.1 mph NW6.6 kmh NW 10.7 mph17.2 kmh 30.05 in1017.6 mb 0.00 in0.0 mm 0.00 in0.0 mm 0.00 in0.0 mm
07:50 PM 79.9°F26.6°C 58.5°F14.7°C 48% 5.2 mph NW8.4 kmh NW 11.4 mph18.3 kmh 30.05 in1017.6 mb 0.00 in0.0 mm 0.00 in0.0 mm 0.00 in0.0 mm
07:55 PM 79.9°F26.6°C 58.5°F14.7°C 48% 5.8 mph NW9.3 kmh NW 11.4 mph18.3 kmh 30.05 in1017.6 mb 0.00 in0.0 mm 0.00 in0.0 mm 0.00 in0.0 mm
08:00 PM 79.7°F26.5°C 58.9°F14.9°C 49% 3.9 mph NW6.3 kmh NW 10.7 mph17.2 kmh 30.05 in1017.6 mb 0.00 in0.0 mm 0.00 in0.0 mm 0.00 in0.0 mm
08:05 PM 79.2°F26.2°C 59.0°F15.0°C 50% 3.0 mph NW4.8 kmh NW 9.8 mph15.8 kmh 30.05 in1017.6 mb 0.00 in0.0 mm 0.00 in0.0 mm 0.00 in0.0 mm
08:10 PM 79.2°F26.2°C 59.0°F15.0°C 50% 3.6 mph NW5.8 kmh NW 8.3 mph13.4 kmh 30.05 in1017.6 mb 0.00 in0.0 mm 0.00 in0.0 mm 0.00 in0.0 mm
08:15 PM 79.2°F26.2°C 59.0°F15.0°C 50% 3.3 mph NNW5.3 kmh NNW 7.6 mph12.2 kmh 30.05 in1017.6 mb 0.00 in0.0 mm 0.00 in0.0 mm 0.00 in0.0 mm
08:20 PM 79.2°F26.2°C 59.0°F15.0°C 50% 3.7 mph NNW6.0 kmh NNW 11.4 mph18.3 kmh 30.05 in1017.6 mb 0.00 in0.0 mm 0.00 in0.0 mm 0.00 in0.0 mm
08:25 PM 79.2°F26.2°C 59.0°F15.0°C 50% 4.5 mph NNW7.2 kmh NNW 11.4 mph18.3 kmh 30.06 in1017.9 mb 0.00 in0.0 mm 0.00 in0.0 mm 0.00 in0.0 mm
08:30 PM 79.2°F26.2°C 59.0°F15.0°C 50% 5.1 mph NNW8.2 kmh NNW 13.6 mph21.9 kmh 30.06 in1017.9 mb 0.00 in0.0 mm 0.00 in0.0 mm 0.00 in0.0 mm
08:35 PM 79.2°F26.2°C 59.0°F15.0°C 50% 5.1 mph NNW8.2 kmh NNW 13.6 mph21.9 kmh 30.06 in1017.9 mb 0.00 in0.0 mm 0.00 in0.0 mm 0.00 in0.0 mm
08:40 PM 79.0°F26.1°C 58.8°F14.9°C 50% 4.6 mph NNW7.4 kmh NNW 13.6 mph21.9 kmh 30.06 in1017.9 mb 0.00 in0.0 mm 0.00 in0.0 mm 0.00 in0.0 mm
08:45 PM 79.0°F26.1°C 58.8°F14.9°C 50% 4.7 mph NW7.6 kmh NW 9.8 mph15.8 kmh 30.06 in1017.9 mb 0.00 in0.0 mm 0.00 in0.0 mm 0.00 in0.0 mm
08:50 PM 79.0°F26.1°C 58.8°F14.9°C 50% 4.5 mph NW7.2 kmh NW 9.2 mph14.8 kmh 30.06 in1017.9 mb 0.00 in0.0 mm 0.00 in0.0 mm 0.00 in0.0 mm
08:55 PM 78.8°F26.0°C 59.2°F15.1°C 51% 3.8 mph NW6.1 kmh NW 8.3 mph13.4 kmh 30.06 in1017.9 mb 0.00 in0.0 mm 0.00 in0.0 mm 0.00 in0.0 mm
09:00 PM 78.6°F25.9°C 59.0°F15.0°C 51% 3.6 mph NW5.8 kmh NW 7.6 mph12.2 kmh 30.07 in1018.3 mb 0.00 in0.0 mm 0.00 in0.0 mm 0.00 in0.0 mm
09:05 PM 78.3°F25.7°C 59.2°F15.1°C 52% 3.5 mph NW5.6 kmh NW 7.6 mph12.2 kmh 30.06 in1017.9 mb 0.00 in0.0 mm 0.00 in0.0 mm 0.00 in0.0 mm
09:10 PM 78.3°F25.7°C 59.2°F15.1°C 52% 3.5 mph NW5.6 kmh NW 8.3 mph13.4 kmh 30.06 in1017.9 mb 0.00 in0.0 mm 0.00 in0.0 mm 0.00 in0.0 mm
09:15 PM 78.3°F25.7°C 58.7°F14.8°C 51% 4.2 mph NW6.8 kmh NW 9.8 mph15.8 kmh 30.06 in1017.9 mb 0.00 in0.0 mm 0.00 in0.0 mm 0.00 in0.0 mm
09:20 PM 78.3°F25.7°C 59.2°F15.1°C 52% 4.6 mph NW7.4 kmh NW 10.7 mph17.2 kmh 30.06 in1017.9 mb 0.00 in0.0 mm 0.00 in0.0 mm 0.00 in0.0 mm
09:25 PM 78.4°F25.8°C 59.4°F15.2°C 52% 4.9 mph NW7.9 kmh NW 10.7 mph17.2 kmh 30.06 in1017.9 mb 0.00 in0.0 mm 0.00 in0.0 mm 0.00 in0.0 mm
09:30 PM 78.4°F25.8°C 59.4°F15.2°C 52% 5.0 mph NNW8.0 kmh NNW 9.8 mph15.8 kmh 30.06 in1017.9 mb 0.00 in0.0 mm 0.00 in0.0 mm 0.00 in0.0 mm
09:35 PM 78.3°F25.7°C 59.2°F15.1°C 52% 4.6 mph NW7.4 kmh NW 9.2 mph14.8 kmh 30.06 in1017.9 mb 0.00 in0.0 mm 0.00 in0.0 mm 0.00 in0.0 mm
09:40 PM 78.3°F25.7°C 59.8°F15.4°C 53% 4.0 mph NW6.4 kmh NW 8.3 mph13.4 kmh 30.06 in1017.9 mb 0.00 in0.0 mm 0.00 in0.0 mm 0.00 in0.0 mm
09:45 PM 78.3°F25.7°C 59.8°F15.4°C 53% 4.1 mph NNW6.6 kmh NNW 9.2 mph14.8 kmh 30.06 in1017.9 mb 0.00 in0.0 mm 0.00 in0.0 mm 0.00 in0.0 mm
09:50 PM 78.3°F25.7°C 59.8°F15.4°C 53% 4.4 mph N7.1 kmh N 9.8 mph15.8 kmh 30.06 in1017.9 mb 0.00 in0.0 mm 0.00 in0.0 mm 0.00 in0.0 mm
09:55 PM 78.1°F25.6°C 59.6°F15.3°C 53% 3.6 mph NNW5.8 kmh NNW 9.8 mph15.8 kmh 30.07 in1018.3 mb 0.00 in0.0 mm 0.00 in0.0 mm 0.00 in0.0 mm
10:00 PM 78.1°F25.6°C 59.6°F15.3°C 53% 2.9 mph NW4.7 kmh NW 7.6 mph12.2 kmh 30.06 in1017.9 mb 0.00 in0.0 mm 0.00 in0.0 mm 0.00 in0.0 mm
10:05 PM 78.1°F25.6°C 59.1°F15.1°C 52% 3.0 mph NW4.8 kmh NW 9.2 mph14.8 kmh 30.06 in1017.9 mb 0.00 in0.0 mm 0.00 in0.0 mm 0.00 in0.0 mm
10:10 PM 78.1°F25.6°C 58.0°F14.4°C 50% 3.6 mph NW5.8 kmh NW 9.2 mph14.8 kmh 30.07 in1018.3 mb 0.00 in0.0 mm 0.00 in0.0 mm 0.00 in0.0 mm
10:15 PM 78.1°F25.6°C 58.0°F14.4°C 50% 3.5 mph NW5.6 kmh NW 8.3 mph13.4 kmh 30.06 in1017.9 mb 0.00 in0.0 mm 0.00 in0.0 mm 0.00 in0.0 mm
10:20 PM 78.1°F25.6°C 58.0°F14.4°C 50% 3.2 mph N5.1 kmh N 7.6 mph12.2 kmh 30.07 in1018.3 mb 0.00 in0.0 mm 0.00 in0.0 mm 0.00 in0.0 mm
10:25 PM 78.1°F25.6°C 57.4°F14.1°C 49% 3.9 mph N6.3 kmh N 7.6 mph12.2 kmh 30.07 in1018.3 mb 0.00 in0.0 mm 0.00 in0.0 mm 0.00 in0.0 mm
10:30 PM 78.1°F25.6°C 58.0°F14.4°C 50% 3.7 mph NNW6.0 kmh NNW 7.6 mph12.2 kmh 30.07 in1018.3 mb 0.00 in0.0 mm 0.00 in0.0 mm 0.00 in0.0 mm
10:35 PM 78.1°F25.6°C 58.5°F14.7°C 51% 3.1 mph NW5.0 kmh NW 7.6 mph12.2 kmh 30.07 in1018.3 mb 0.00 in0.0 mm 0.00 in0.0 mm 0.00 in0.0 mm
10:40 PM 77.9°F25.5°C 58.9°F14.9°C 52% 3.6 mph NNW5.8 kmh NNW 9.2 mph14.8 kmh 30.07 in1018.3 mb 0.00 in0.0 mm 0.00 in0.0 mm 0.00 in0.0 mm
10:45 PM 77.9°F25.5°C 59.4°F15.2°C 53% 4.3 mph NNW6.9 kmh NNW 9.2 mph14.8 kmh 30.07 in1018.3 mb 0.00 in0.0 mm 0.00 in0.0 mm 0.00 in0.0 mm
10:50 PM 77.9°F25.5°C 58.9°F14.9°C 52% 4.3 mph NW6.9 kmh NW 9.8 mph15.8 kmh 30.07 in1018.3 mb 0.00 in0.0 mm 0.00 in0.0 mm 0.00 in0.0 mm
10:55 PM 77.9°F25.5°C 58.4°F14.7°C 51% 4.9 mph NW7.9 kmh NW 10.7 mph17.2 kmh 30.07 in1018.3 mb 0.00 in0.0 mm 0.00 in0.0 mm 0.00 in0.0 mm
11:00 PM 78.1°F25.6°C 58.0°F14.4°C 50% 4.6 mph NNW7.4 kmh NNW 10.7 mph17.2 kmh 30.07 in1018.3 mb 0.00 in0.0 mm 0.00 in0.0 mm 0.00 in0.0 mm
11:05 PM 77.9°F25.5°C 57.8°F14.3°C 50% 4.2 mph NNW6.8 kmh NNW 10.7 mph17.2 kmh 30.07 in1018.3 mb 0.00 in0.0 mm 0.00 in0.0 mm 0.00 in0.0 mm
11:10 PM 77.9°F25.5°C 57.8°F14.3°C 50% 4.1 mph NNW6.6 kmh NNW 9.8 mph15.8 kmh 30.07 in1018.3 mb 0.00 in0.0 mm 0.00 in0.0 mm 0.00 in0.0 mm
11:15 PM 77.9°F25.5°C 57.8°F14.3°C 50% 4.2 mph N6.8 kmh N 11.4 mph18.3 kmh 30.07 in1018.3 mb 0.00 in0.0 mm 0.00 in0.0 mm 0.00 in0.0 mm
11:20 PM 77.9°F25.5°C 57.2°F14.0°C 49% 4.5 mph N7.2 kmh N 11.4 mph18.3 kmh 30.07 in1018.3 mb 0.00 in0.0 mm 0.00 in0.0 mm 0.00 in0.0 mm
11:25 PM 77.9°F25.5°C 57.2°F14.0°C 49% 4.8 mph N7.7 kmh N 9.8 mph15.8 kmh 30.06 in1017.9 mb 0.00 in0.0 mm 0.00 in0.0 mm 0.00 in0.0 mm
11:30 PM 77.7°F25.4°C 57.6°F14.2°C 50% 4.7 mph N7.6 kmh N 9.8 mph15.8 kmh 30.07 in1018.3 mb 0.00 in0.0 mm 0.00 in0.0 mm 0.00 in0.0 mm
11:35 PM 77.7°F25.4°C 57.6°F14.2°C 50% 4.4 mph NNW7.1 kmh NNW 8.3 mph13.4 kmh 30.07 in1018.3 mb 0.00 in0.0 mm 0.00 in0.0 mm 0.00 in0.0 mm
11:40 PM 77.5°F25.3°C 57.5°F14.2°C 50% 4.2 mph N6.8 kmh N 8.3 mph13.4 kmh 30.06 in1017.9 mb 0.00 in0.0 mm 0.00 in0.0 mm 0.00 in0.0 mm
11:45 PM 77.5°F25.3°C 57.5°F14.2°C 50% 4.1 mph NNW6.6 kmh NNW 8.3 mph13.4 kmh 30.06 in1017.9 mb 0.00 in0.0 mm 0.00 in0.0 mm 0.00 in0.0 mm
11:50 PM 77.5°F25.3°C 57.5°F14.2°C 50% 4.4 mph N7.1 kmh N 6.9 mph11.1 kmh 30.06 in1017.9 mb 0.00 in0.0 mm 0.00 in0.0 mm 0.00 in0.0 mm
11:55 PM 77.5°F25.3°C 58.0°F14.4°C 51% 3.9 mph N6.3 kmh N 6.9 mph11.1 kmh 30.06 in1017.9 mb 0.00 in0.0 mm 0.00 in0.0 mm 0.00 in0.0 mm